sensor_id;sensor_type;location;lat;lon;timestamp;P1;durP1;ratioP1;P2;durP2;ratioP2
33421;SDS011;19763;55.798;37.782;2023-11-19T00:00:20;18.00;;;13.18;;
33421;SDS011;19763;55.798;37.782;2023-11-19T00:02:46;23.73;;;13.27;;
33421;SDS011;19763;55.798;37.782;2023-11-19T00:05:12;22.42;;;14.30;;
33421;SDS011;19763;55.798;37.782;2023-11-19T00:07:39;22.27;;;14.27;;
33421;SDS011;19763;55.798;37.782;2023-11-19T00:10:09;22.77;;;13.65;;
33421;SDS011;19763;55.798;37.782;2023-11-19T00:12:39;18.90;;;13.07;;
33421;SDS011;19763;55.798;37.782;2023-11-19T00:15:06;22.10;;;14.23;;
33421;SDS011;19763;55.798;37.782;2023-11-19T00:17:39;21.95;;;13.45;;
33421;SDS011;19763;55.798;37.782;2023-11-19T00:20:16;23.40;;;13.88;;
33421;SDS011;19763;55.798;37.782;2023-11-19T00:22:44;20.50;;;12.95;;
33421;SDS011;19763;55.798;37.782;2023-11-19T00:25:11;28.27;;;13.30;;
33421;SDS011;19763;55.798;37.782;2023-11-19T00:27:37;19.83;;;12.82;;
33421;SDS011;19763;55.798;37.782;2023-11-19T00:30:03;19.98;;;13.35;;
33421;SDS011;19763;55.798;37.782;2023-11-19T00:32:32;19.58;;;13.13;;
33421;SDS011;19763;55.798;37.782;2023-11-19T00:34:58;18.00;;;12.82;;
33421;SDS011;19763;55.798;37.782;2023-11-19T00:37:24;22.20;;;13.18;;
33421;SDS011;19763;55.798;37.782;2023-11-19T00:39:49;19.92;;;12.90;;
33421;SDS011;19763;55.798;37.782;2023-11-19T00:42:17;20.27;;;13.35;;
33421;SDS011;19763;55.798;37.782;2023-11-19T00:44:43;19.83;;;13.98;;
33421;SDS011;19763;55.798;37.782;2023-11-19T00:47:09;21.83;;;13.52;;
33421;SDS011;19763;55.798;37.782;2023-11-19T00:49:35;19.42;;;13.27;;
33421;SDS011;19763;55.798;37.782;2023-11-19T00:52:00;19.58;;;13.20;;
33421;SDS011;19763;55.798;37.782;2023-11-19T00:54:27;21.17;;;12.90;;
33421;SDS011;19763;55.798;37.782;2023-11-19T00:56:53;20.33;;;12.98;;
33421;SDS011;19763;55.798;37.782;2023-11-19T00:59:19;18.27;;;12.43;;
33421;SDS011;19763;55.798;37.782;2023-11-19T01:01:45;23.80;;;14.30;;
33421;SDS011;19763;55.798;37.782;2023-11-19T01:04:13;18.88;;;12.63;;
33421;SDS011;19763;55.798;37.782;2023-11-19T01:06:40;22.17;;;14.52;;
33421;SDS011;19763;55.798;37.782;2023-11-19T01:09:07;21.88;;;13.60;;
33421;SDS011;19763;55.798;37.782;2023-11-19T01:11:34;18.67;;;13.63;;
33421;SDS011;19763;55.798;37.782;2023-11-19T01:14:00;24.42;;;14.32;;
33421;SDS011;19763;55.798;37.782;2023-11-19T01:16:26;21.40;;;13.40;;
33421;SDS011;19763;55.798;37.782;2023-11-19T01:18:52;26.50;;;14.35;;
33421;SDS011;19763;55.798;37.782;2023-11-19T01:21:18;25.20;;;14.30;;
33421;SDS011;19763;55.798;37.782;2023-11-19T01:23:44;19.95;;;13.30;;
33421;SDS011;19763;55.798;37.782;2023-11-19T01:26:11;22.08;;;14.27;;
33421;SDS011;19763;55.798;37.782;2023-11-19T01:28:39;22.73;;;13.50;;
33421;SDS011;19763;55.798;37.782;2023-11-19T01:31:08;22.63;;;14.43;;
33421;SDS011;19763;55.798;37.782;2023-11-19T01:33:35;22.42;;;14.43;;
33421;SDS011;19763;55.798;37.782;2023-11-19T01:36:01;23.15;;;14.50;;
33421;SDS011;19763;55.798;37.782;2023-11-19T01:38:27;22.23;;;14.27;;
33421;SDS011;19763;55.798;37.782;2023-11-19T01:40:56;21.42;;;14.10;;
33421;SDS011;19763;55.798;37.782;2023-11-19T01:43:35;21.45;;;14.60;;
33421;SDS011;19763;55.798;37.782;2023-11-19T01:46:02;22.65;;;14.15;;
33421;SDS011;19763;55.798;37.782;2023-11-19T01:48:29;26.05;;;15.52;;
33421;SDS011;19763;55.798;37.782;2023-11-19T01:50:57;24.40;;;16.10;;
33421;SDS011;19763;55.798;37.782;2023-11-19T01:53:24;24.27;;;16.50;;
33421;SDS011;19763;55.798;37.782;2023-11-19T01:55:50;24.75;;;15.52;;
33421;SDS011;19763;55.798;37.782;2023-11-19T01:58:17;23.77;;;15.05;;
33421;SDS011;19763;55.798;37.782;2023-11-19T02:00:44;23.95;;;14.68;;
33421;SDS011;19763;55.798;37.782;2023-11-19T02:03:11;26.02;;;14.57;;
33421;SDS011;19763;55.798;37.782;2023-11-19T02:05:37;24.08;;;14.05;;
33421;SDS011;19763;55.798;37.782;2023-11-19T02:08:05;23.70;;;14.60;;
33421;SDS011;19763;55.798;37.782;2023-11-19T02:10:30;22.50;;;14.70;;
33421;SDS011;19763;55.798;37.782;2023-11-19T02:12:57;24.60;;;15.23;;
33421;SDS011;19763;55.798;37.782;2023-11-19T02:15:24;23.85;;;15.23;;
33421;SDS011;19763;55.798;37.782;2023-11-19T02:17:51;20.63;;;14.05;;
33421;SDS011;19763;55.798;37.782;2023-11-19T02:20:17;21.25;;;14.15;;
33421;SDS011;19763;55.798;37.782;2023-11-19T02:22:46;26.92;;;15.15;;
33421;SDS011;19763;55.798;37.782;2023-11-19T02:25:27;24.02;;;15.57;;
33421;SDS011;19763;55.798;37.782;2023-11-19T02:28:00;23.58;;;15.25;;
33421;SDS011;19763;55.798;37.782;2023-11-19T02:30:27;22.90;;;14.75;;
33421;SDS011;19763;55.798;37.782;2023-11-19T02:32:56;21.58;;;15.57;;
33421;SDS011;19763;55.798;37.782;2023-11-19T02:35:26;26.38;;;16.60;;
33421;SDS011;19763;55.798;37.782;2023-11-19T02:37:56;23.50;;;17.17;;
33421;SDS011;19763;55.798;37.782;2023-11-19T02:40:22;25.38;;;15.68;;
33421;SDS011;19763;55.798;37.782;2023-11-19T02:42:50;23.20;;;16.15;;
33421;SDS011;19763;55.798;37.782;2023-11-19T02:45:16;24.50;;;16.55;;
33421;SDS011;19763;55.798;37.782;2023-11-19T02:47:42;26.17;;;16.25;;
33421;SDS011;19763;55.798;37.782;2023-11-19T02:50:12;29.33;;;17.45;;
33421;SDS011;19763;55.798;37.782;2023-11-19T02:55:08;27.65;;;17.67;;
33421;SDS011;19763;55.798;37.782;2023-11-19T02:57:45;25.75;;;17.48;;
33421;SDS011;19763;55.798;37.782;2023-11-19T03:00:15;28.63;;;18.42;;
33421;SDS011;19763;55.798;37.782;2023-11-19T03:02:41;28.30;;;18.50;;
33421;SDS011;19763;55.798;37.782;2023-11-19T03:05:19;26.98;;;18.98;;
33421;SDS011;19763;55.798;37.782;2023-11-19T03:07:45;30.40;;;20.05;;
33421;SDS011;19763;55.798;37.782;2023-11-19T03:10:11;29.40;;;19.08;;
33421;SDS011;19763;55.798;37.782;2023-11-19T03:12:40;27.65;;;18.73;;
33421;SDS011;19763;55.798;37.782;2023-11-19T03:15:06;25.60;;;17.92;;
33421;SDS011;19763;55.798;37.782;2023-11-19T03:17:38;28.40;;;18.83;;
33421;SDS011;19763;55.798;37.782;2023-11-19T03:20:05;30.98;;;20.20;;
33421;SDS011;19763;55.798;37.782;2023-11-19T03:22:36;30.65;;;20.23;;
33421;SDS011;19763;55.798;37.782;2023-11-19T03:25:02;31.55;;;19.65;;
33421;SDS011;19763;55.798;37.782;2023-11-19T03:27:29;28.17;;;19.48;;
33421;SDS011;19763;55.798;37.782;2023-11-19T03:29:55;34.08;;;20.98;;
33421;SDS011;19763;55.798;37.782;2023-11-19T03:32:21;27.88;;;20.90;;
33421;SDS011;19763;55.798;37.782;2023-11-19T03:34:46;27.27;;;19.55;;
33421;SDS011;19763;55.798;37.782;2023-11-19T03:37:12;31.20;;;19.88;;
33421;SDS011;19763;55.798;37.782;2023-11-19T03:39:41;28.65;;;19.73;;
33421;SDS011;19763;55.798;37.782;2023-11-19T03:42:07;28.58;;;19.35;;
33421;SDS011;19763;55.798;37.782;2023-11-19T03:44:33;30.38;;;19.65;;
33421;SDS011;19763;55.798;37.782;2023-11-19T03:46:58;30.33;;;19.48;;
33421;SDS011;19763;55.798;37.782;2023-11-19T03:49:24;30.15;;;18.90;;
33421;SDS011;19763;55.798;37.782;2023-11-19T03:51:50;25.83;;;18.70;;
33421;SDS011;19763;55.798;37.782;2023-11-19T03:54:15;27.05;;;19.42;;
33421;SDS011;19763;55.798;37.782;2023-11-19T03:56:41;29.40;;;20.85;;
33421;SDS011;19763;55.798;37.782;2023-11-19T03:59:07;38.42;;;22.48;;
33421;SDS011;19763;55.798;37.782;2023-11-19T04:01:35;45.72;;;25.52;;
33421;SDS011;19763;55.798;37.782;2023-11-19T04:04:02;36.42;;;25.08;;
33421;SDS011;19763;55.798;37.782;2023-11-19T04:06:28;36.67;;;25.85;;
33421;SDS011;19763;55.798;37.782;2023-11-19T04:08:54;39.53;;;26.80;;
33421;SDS011;19763;55.798;37.782;2023-11-19T04:11:20;45.65;;;29.55;;
33421;SDS011;19763;55.798;37.782;2023-11-19T04:13:47;47.67;;;30.02;;
33421;SDS011;19763;55.798;37.782;2023-11-19T04:16:13;46.20;;;29.30;;
33421;SDS011;19763;55.798;37.782;2023-11-19T04:18:40;41.53;;;28.58;;
33421;SDS011;19763;55.798;37.782;2023-11-19T04:21:06;42.42;;;29.30;;
33421;SDS011;19763;55.798;37.782;2023-11-19T04:23:32;40.58;;;29.23;;
33421;SDS011;19763;55.798;37.782;2023-11-19T04:26:01;48.05;;;30.83;;
33421;SDS011;19763;55.798;37.782;2023-11-19T04:28:28;43.35;;;28.95;;
33421;SDS011;19763;55.798;37.782;2023-11-19T04:30:54;42.92;;;28.48;;
33421;SDS011;19763;55.798;37.782;2023-11-19T04:33:20;42.20;;;29.75;;
33421;SDS011;19763;55.798;37.782;2023-11-19T04:35:46;42.95;;;28.63;;
33421;SDS011;19763;55.798;37.782;2023-11-19T04:38:11;37.65;;;26.25;;
33421;SDS011;19763;55.798;37.782;2023-11-19T04:40:37;42.17;;;26.90;;
33421;SDS011;19763;55.798;37.782;2023-11-19T04:43:03;38.40;;;26.08;;
33421;SDS011;19763;55.798;37.782;2023-11-19T04:45:28;30.90;;;23.15;;
33421;SDS011;19763;55.798;37.782;2023-11-19T04:47:54;39.70;;;26.63;;
33421;SDS011;19763;55.798;37.782;2023-11-19T04:50:20;39.97;;;26.90;;
33421;SDS011;19763;55.798;37.782;2023-11-19T04:52:45;40.17;;;27.55;;
33421;SDS011;19763;55.798;37.782;2023-11-19T04:55:12;40.42;;;27.92;;
33421;SDS011;19763;55.798;37.782;2023-11-19T04:57:39;36.90;;;24.90;;
33421;SDS011;19763;55.798;37.782;2023-11-19T05:00:06;40.67;;;25.42;;
33421;SDS011;19763;55.798;37.782;2023-11-19T05:02:34;48.17;;;25.45;;
33421;SDS011;19763;55.798;37.782;2023-11-19T05:05:00;37.00;;;25.02;;
33421;SDS011;19763;55.798;37.782;2023-11-19T05:07:29;39.28;;;24.45;;
33421;SDS011;19763;55.798;37.782;2023-11-19T05:09:54;38.75;;;25.75;;
33421;SDS011;19763;55.798;37.782;2023-11-19T05:12:20;35.50;;;25.55;;
33421;SDS011;19763;55.798;37.782;2023-11-19T05:14:46;36.65;;;23.00;;
33421;SDS011;19763;55.798;37.782;2023-11-19T05:17:15;38.50;;;25.35;;
33421;SDS011;19763;55.798;37.782;2023-11-19T05:19:43;35.45;;;23.50;;
33421;SDS011;19763;55.798;37.782;2023-11-19T05:22:09;29.95;;;21.95;;
33421;SDS011;19763;55.798;37.782;2023-11-19T05:24:34;31.15;;;21.45;;
33421;SDS011;19763;55.798;37.782;2023-11-19T05:27:01;30.10;;;22.58;;
33421;SDS011;19763;55.798;37.782;2023-11-19T05:29:27;32.38;;;21.40;;
33421;SDS011;19763;55.798;37.782;2023-11-19T05:31:53;34.67;;;23.05;;
33421;SDS011;19763;55.798;37.782;2023-11-19T05:34:20;32.08;;;21.98;;
33421;SDS011;19763;55.798;37.782;2023-11-19T05:36:46;30.13;;;22.05;;
33421;SDS011;19763;55.798;37.782;2023-11-19T05:39:12;31.63;;;22.38;;
33421;SDS011;19763;55.798;37.782;2023-11-19T05:41:38;32.50;;;24.05;;
33421;SDS011;19763;55.798;37.782;2023-11-19T05:44:04;38.75;;;24.33;;
33421;SDS011;19763;55.798;37.782;2023-11-19T05:46:30;36.70;;;24.95;;
33421;SDS011;19763;55.798;37.782;2023-11-19T05:48:55;33.03;;;21.70;;
33421;SDS011;19763;55.798;37.782;2023-11-19T05:51:21;36.13;;;23.77;;
33421;SDS011;19763;55.798;37.782;2023-11-19T05:53:49;32.97;;;23.05;;
33421;SDS011;19763;55.798;37.782;2023-11-19T05:56:15;34.72;;;23.20;;
33421;SDS011;19763;55.798;37.782;2023-11-19T05:58:46;36.83;;;25.02;;
33421;SDS011;19763;55.798;37.782;2023-11-19T06:01:14;37.25;;;24.58;;
33421;SDS011;19763;55.798;37.782;2023-11-19T06:03:40;36.75;;;26.70;;
33421;SDS011;19763;55.798;37.782;2023-11-19T06:06:08;40.08;;;27.30;;
33421;SDS011;19763;55.798;37.782;2023-11-19T06:08:34;39.33;;;28.52;;
33421;SDS011;19763;55.798;37.782;2023-11-19T06:10:59;42.97;;;30.02;;
33421;SDS011;19763;55.798;37.782;2023-11-19T06:13:26;37.70;;;26.50;;
33421;SDS011;19763;55.798;37.782;2023-11-19T06:15:52;39.53;;;26.38;;
33421;SDS011;19763;55.798;37.782;2023-11-19T06:18:18;45.65;;;30.48;;
33421;SDS011;19763;55.798;37.782;2023-11-19T06:20:45;46.05;;;32.20;;
33421;SDS011;19763;55.798;37.782;2023-11-19T06:23:11;46.33;;;32.67;;
33421;SDS011;19763;55.798;37.782;2023-11-19T06:25:37;49.83;;;37.33;;
33421;SDS011;19763;55.798;37.782;2023-11-19T06:28:03;48.83;;;36.90;;
33421;SDS011;19763;55.798;37.782;2023-11-19T06:30:29;52.20;;;36.20;;
33421;SDS011;19763;55.798;37.782;2023-11-19T06:32:57;47.85;;;37.08;;
33421;SDS011;19763;55.798;37.782;2023-11-19T06:35:23;50.67;;;36.08;;
33421;SDS011;19763;55.798;37.782;2023-11-19T06:37:49;56.20;;;35.80;;
33421;SDS011;19763;55.798;37.782;2023-11-19T06:40:15;51.35;;;34.53;;
33421;SDS011;19763;55.798;37.782;2023-11-19T06:42:41;49.85;;;35.83;;
33421;SDS011;19763;55.798;37.782;2023-11-19T06:45:07;53.65;;;35.33;;
33421;SDS011;19763;55.798;37.782;2023-11-19T06:47:33;46.95;;;33.70;;
33421;SDS011;19763;55.798;37.782;2023-11-19T06:49:59;45.70;;;34.53;;
33421;SDS011;19763;55.798;37.782;2023-11-19T06:52:24;46.60;;;34.03;;
33421;SDS011;19763;55.798;37.782;2023-11-19T06:54:50;45.95;;;33.88;;
33421;SDS011;19763;55.798;37.782;2023-11-19T06:57:16;48.80;;;32.40;;
33421;SDS011;19763;55.798;37.782;2023-11-19T06:59:42;46.80;;;32.80;;
33421;SDS011;19763;55.798;37.782;2023-11-19T07:02:08;44.50;;;30.88;;
33421;SDS011;19763;55.798;37.782;2023-11-19T07:04:34;45.40;;;30.67;;
33421;SDS011;19763;55.798;37.782;2023-11-19T07:07:00;41.25;;;30.13;;
33421;SDS011;19763;55.798;37.782;2023-11-19T07:09:26;41.97;;;30.00;;
33421;SDS011;19763;55.798;37.782;2023-11-19T07:11:52;41.22;;;28.88;;
33421;SDS011;19763;55.798;37.782;2023-11-19T07:14:18;35.63;;;28.35;;
33421;SDS011;19763;55.798;37.782;2023-11-19T07:16:44;42.35;;;28.27;;
33421;SDS011;19763;55.798;37.782;2023-11-19T07:19:11;35.75;;;26.13;;
33421;SDS011;19763;55.798;37.782;2023-11-19T07:21:37;37.03;;;27.55;;
33421;SDS011;19763;55.798;37.782;2023-11-19T07:24:09;37.85;;;26.67;;
33421;SDS011;19763;55.798;37.782;2023-11-19T07:26:42;34.00;;;25.85;;
33421;SDS011;19763;55.798;37.782;2023-11-19T07:29:09;35.70;;;25.23;;
33421;SDS011;19763;55.798;37.782;2023-11-19T07:31:35;34.47;;;25.35;;
33421;SDS011;19763;55.798;37.782;2023-11-19T07:34:01;33.10;;;25.13;;
33421;SDS011;19763;55.798;37.782;2023-11-19T07:36:26;36.42;;;25.80;;
33421;SDS011;19763;55.798;37.782;2023-11-19T07:38:52;34.15;;;25.80;;
33421;SDS011;19763;55.798;37.782;2023-11-19T07:41:18;36.08;;;25.35;;
33421;SDS011;19763;55.798;37.782;2023-11-19T07:43:45;35.22;;;25.38;;
33421;SDS011;19763;55.798;37.782;2023-11-19T07:46:12;53.55;;;28.85;;
33421;SDS011;19763;55.798;37.782;2023-11-19T07:48:39;35.80;;;24.85;;
33421;SDS011;19763;55.798;37.782;2023-11-19T07:51:05;34.20;;;23.90;;
33421;SDS011;19763;55.798;37.782;2023-11-19T07:53:31;32.65;;;24.50;;
33421;SDS011;19763;55.798;37.782;2023-11-19T07:55:58;35.53;;;25.02;;
33421;SDS011;19763;55.798;37.782;2023-11-19T07:58:25;31.02;;;24.00;;
33421;SDS011;19763;55.798;37.782;2023-11-19T08:00:51;29.05;;;21.52;;
33421;SDS011;19763;55.798;37.782;2023-11-19T08:03:17;30.98;;;21.45;;
33421;SDS011;19763;55.798;37.782;2023-11-19T08:05:44;32.20;;;22.67;;
33421;SDS011;19763;55.798;37.782;2023-11-19T08:08:11;30.13;;;22.40;;
33421;SDS011;19763;55.798;37.782;2023-11-19T08:10:37;32.85;;;23.60;;
33421;SDS011;19763;55.798;37.782;2023-11-19T08:13:05;31.30;;;24.00;;
33421;SDS011;19763;55.798;37.782;2023-11-19T08:15:31;36.55;;;24.88;;
33421;SDS011;19763;55.798;37.782;2023-11-19T08:17:57;31.60;;;23.30;;
33421;SDS011;19763;55.798;37.782;2023-11-19T08:20:22;31.27;;;23.08;;
33421;SDS011;19763;55.798;37.782;2023-11-19T08:22:48;31.15;;;22.63;;
33421;SDS011;19763;55.798;37.782;2023-11-19T08:25:14;28.02;;;22.88;;
33421;SDS011;19763;55.798;37.782;2023-11-19T08:27:40;31.67;;;22.20;;
33421;SDS011;19763;55.798;37.782;2023-11-19T08:30:06;31.60;;;21.92;;
33421;SDS011;19763;55.798;37.782;2023-11-19T08:32:32;28.30;;;20.08;;
33421;SDS011;19763;55.798;37.782;2023-11-19T08:34:58;27.77;;;21.23;;
33421;SDS011;19763;55.798;37.782;2023-11-19T08:37:24;28.27;;;21.90;;
33421;SDS011;19763;55.798;37.782;2023-11-19T08:39:50;28.98;;;21.45;;
33421;SDS011;19763;55.798;37.782;2023-11-19T08:42:16;26.65;;;21.67;;
33421;SDS011;19763;55.798;37.782;2023-11-19T08:44:42;27.45;;;20.98;;
33421;SDS011;19763;55.798;37.782;2023-11-19T08:47:09;23.15;;;18.40;;
33421;SDS011;19763;55.798;37.782;2023-11-19T08:49:36;23.85;;;19.83;;
33421;SDS011;19763;55.798;37.782;2023-11-19T08:52:02;23.88;;;19.20;;
33421;SDS011;19763;55.798;37.782;2023-11-19T08:54:28;21.65;;;17.95;;
33421;SDS011;19763;55.798;37.782;2023-11-19T08:56:53;26.58;;;18.90;;
33421;SDS011;19763;55.798;37.782;2023-11-19T08:59:19;21.52;;;17.10;;
33421;SDS011;19763;55.798;37.782;2023-11-19T09:01:45;25.20;;;17.77;;
33421;SDS011;19763;55.798;37.782;2023-11-19T09:04:11;22.17;;;16.17;;
33421;SDS011;19763;55.798;37.782;2023-11-19T09:06:36;19.85;;;16.80;;
33421;SDS011;19763;55.798;37.782;2023-11-19T09:09:02;21.30;;;16.40;;
33421;SDS011;19763;55.798;37.782;2023-11-19T09:11:30;23.02;;;16.15;;
33421;SDS011;19763;55.798;37.782;2023-11-19T09:13:57;24.00;;;15.82;;
33421;SDS011;19763;55.798;37.782;2023-11-19T09:16:23;19.85;;;15.35;;
33421;SDS011;19763;55.798;37.782;2023-11-19T09:18:49;20.27;;;14.77;;
33421;SDS011;19763;55.798;37.782;2023-11-19T09:21:15;19.02;;;15.15;;
33421;SDS011;19763;55.798;37.782;2023-11-19T09:23:41;21.67;;;15.02;;
33421;SDS011;19763;55.798;37.782;2023-11-19T09:26:10;19.58;;;13.70;;
33421;SDS011;19763;55.798;37.782;2023-11-19T09:28:36;18.20;;;13.55;;
33421;SDS011;19763;55.798;37.782;2023-11-19T09:31:01;16.75;;;12.20;;
33421;SDS011;19763;55.798;37.782;2023-11-19T09:33:30;18.00;;;14.10;;
33421;SDS011;19763;55.798;37.782;2023-11-19T09:35:56;18.55;;;13.57;;
33421;SDS011;19763;55.798;37.782;2023-11-19T09:38:23;20.15;;;13.80;;
33421;SDS011;19763;55.798;37.782;2023-11-19T09:40:48;20.52;;;14.50;;
33421;SDS011;19763;55.798;37.782;2023-11-19T09:43:15;19.20;;;14.65;;
33421;SDS011;19763;55.798;37.782;2023-11-19T09:45:50;22.20;;;14.93;;
33421;SDS011;19763;55.798;37.782;2023-11-19T09:48:17;22.23;;;15.43;;
33421;SDS011;19763;55.798;37.782;2023-11-19T09:50:46;20.05;;;14.60;;
33421;SDS011;19763;55.798;37.782;2023-11-19T09:53:14;32.88;;;21.80;;
33421;SDS011;19763;55.798;37.782;2023-11-19T09:55:40;25.10;;;17.42;;
33421;SDS011;19763;55.798;37.782;2023-11-19T09:58:07;20.92;;;15.02;;
33421;SDS011;19763;55.798;37.782;2023-11-19T10:00:33;20.08;;;15.95;;
33421;SDS011;19763;55.798;37.782;2023-11-19T10:02:59;20.13;;;14.88;;
33421;SDS011;19763;55.798;37.782;2023-11-19T10:05:25;20.80;;;14.10;;
33421;SDS011;19763;55.798;37.782;2023-11-19T10:07:54;21.00;;;14.32;;
33421;SDS011;19763;55.798;37.782;2023-11-19T10:10:21;19.90;;;14.85;;
33421;SDS011;19763;55.798;37.782;2023-11-19T10:12:46;19.42;;;13.63;;
33421;SDS011;19763;55.798;37.782;2023-11-19T10:15:23;20.05;;;14.13;;
33421;SDS011;19763;55.798;37.782;2023-11-19T10:17:51;18.00;;;13.73;;
33421;SDS011;19763;55.798;37.782;2023-11-19T10:20:17;17.83;;;13.45;;
33421;SDS011;19763;55.798;37.782;2023-11-19T10:22:42;17.48;;;12.75;;
33421;SDS011;19763;55.798;37.782;2023-11-19T10:25:29;21.25;;;14.98;;
33421;SDS011;19763;55.798;37.782;2023-11-19T10:27:55;23.05;;;14.35;;
33421;SDS011;19763;55.798;37.782;2023-11-19T10:30:25;19.15;;;13.38;;
33421;SDS011;19763;55.798;37.782;2023-11-19T10:33:02;17.98;;;13.30;;
33421;SDS011;19763;55.798;37.782;2023-11-19T10:35:28;16.80;;;12.98;;
33421;SDS011;19763;55.798;37.782;2023-11-19T10:37:54;18.90;;;13.30;;
33421;SDS011;19763;55.798;37.782;2023-11-19T10:40:20;20.30;;;13.13;;
33421;SDS011;19763;55.798;37.782;2023-11-19T10:42:45;18.48;;;12.88;;
33421;SDS011;19763;55.798;37.782;2023-11-19T10:45:23;19.50;;;13.07;;
33421;SDS011;19763;55.798;37.782;2023-11-19T10:47:51;17.70;;;12.13;;
33421;SDS011;19763;55.798;37.782;2023-11-19T10:50:17;18.70;;;12.68;;
33421;SDS011;19763;55.798;37.782;2023-11-19T10:52:43;18.23;;;12.98;;
33421;SDS011;19763;55.798;37.782;2023-11-19T10:55:11;20.20;;;12.82;;
33421;SDS011;19763;55.798;37.782;2023-11-19T10:57:40;16.67;;;12.75;;
33421;SDS011;19763;55.798;37.782;2023-11-19T11:00:09;20.08;;;13.45;;
33421;SDS011;19763;55.798;37.782;2023-11-19T11:02:40;20.13;;;12.73;;
33421;SDS011;19763;55.798;37.782;2023-11-19T11:05:08;19.40;;;12.80;;
33421;SDS011;19763;55.798;37.782;2023-11-19T11:07:37;16.70;;;12.45;;
33421;SDS011;19763;55.798;37.782;2023-11-19T11:10:06;18.85;;;13.32;;
33421;SDS011;19763;55.798;37.782;2023-11-19T11:12:37;20.77;;;12.68;;
33421;SDS011;19763;55.798;37.782;2023-11-19T11:15:06;19.95;;;12.15;;
33421;SDS011;19763;55.798;37.782;2023-11-19T11:17:33;15.18;;;11.75;;
33421;SDS011;19763;55.798;37.782;2023-11-19T11:19:59;17.15;;;11.70;;
33421;SDS011;19763;55.798;37.782;2023-11-19T11:22:25;19.88;;;12.30;;
33421;SDS011;19763;55.798;37.782;2023-11-19T11:30:20;18.83;;;11.85;;
33421;SDS011;19763;55.798;37.782;2023-11-19T11:32:56;17.90;;;11.77;;
33421;SDS011;19763;55.798;37.782;2023-11-19T11:38:21;16.23;;;12.63;;
33421;SDS011;19763;55.798;37.782;2023-11-19T11:44:01;26.38;;;12.90;;
33421;SDS011;19763;55.798;37.782;2023-11-19T11:49:00;19.65;;;13.95;;
33421;SDS011;19763;55.798;37.782;2023-11-19T11:57:00;20.55;;;14.43;;
33421;SDS011;19763;55.798;37.782;2023-11-19T12:02:10;22.90;;;15.45;;
33421;SDS011;19763;55.798;37.782;2023-11-19T12:04:41;23.13;;;14.73;;
33421;SDS011;19763;55.798;37.782;2023-11-19T12:07:17;21.52;;;14.63;;
33421;SDS011;19763;55.798;37.782;2023-11-19T12:10:28;20.50;;;15.15;;
33421;SDS011;19763;55.798;37.782;2023-11-19T12:12:36;20.85;;;13.57;;
33421;SDS011;19763;55.798;37.782;2023-11-19T12:15:08;22.42;;;15.75;;
33421;SDS011;19763;55.798;37.782;2023-11-19T12:17:41;18.70;;;12.93;;
33421;SDS011;19763;55.798;37.782;2023-11-19T12:20:10;27.05;;;15.60;;
33421;SDS011;19763;55.798;37.782;2023-11-19T12:22:40;24.20;;;14.35;;
33421;SDS011;19763;55.798;37.782;2023-11-19T12:25:07;19.85;;;14.27;;
33421;SDS011;19763;55.798;37.782;2023-11-19T12:27:41;24.80;;;16.17;;
33421;SDS011;19763;55.798;37.782;2023-11-19T12:30:08;20.73;;;14.83;;
33421;SDS011;19763;55.798;37.782;2023-11-19T12:32:37;20.75;;;14.50;;
33421;SDS011;19763;55.798;37.782;2023-11-19T12:35:04;20.98;;;14.48;;
33421;SDS011;19763;55.798;37.782;2023-11-19T12:37:30;24.08;;;15.88;;
33421;SDS011;19763;55.798;37.782;2023-11-19T12:39:57;29.10;;;15.43;;
33421;SDS011;19763;55.798;37.782;2023-11-19T12:42:38;20.67;;;14.00;;
33421;SDS011;19763;55.798;37.782;2023-11-19T12:45:05;18.27;;;13.93;;
33421;SDS011;19763;55.798;37.782;2023-11-19T12:47:31;19.80;;;13.90;;
33421;SDS011;19763;55.798;37.782;2023-11-19T12:49:57;17.60;;;12.65;;
33421;SDS011;19763;55.798;37.782;2023-11-19T12:52:23;17.80;;;12.85;;
33421;SDS011;19763;55.798;37.782;2023-11-19T12:54:49;19.98;;;13.68;;
33421;SDS011;19763;55.798;37.782;2023-11-19T12:57:16;21.40;;;14.13;;
33421;SDS011;19763;55.798;37.782;2023-11-19T12:59:53;20.70;;;13.27;;
33421;SDS011;19763;55.798;37.782;2023-11-19T13:02:21;20.95;;;14.05;;
33421;SDS011;19763;55.798;37.782;2023-11-19T13:04:47;21.58;;;13.77;;
33421;SDS011;19763;55.798;37.782;2023-11-19T13:07:12;20.98;;;14.60;;
33421;SDS011;19763;55.798;37.782;2023-11-19T13:09:38;24.27;;;14.48;;
33421;SDS011;19763;55.798;37.782;2023-11-19T13:12:13;20.13;;;14.50;;
33421;SDS011;19763;55.798;37.782;2023-11-19T13:14:40;20.50;;;14.13;;
33421;SDS011;19763;55.798;37.782;2023-11-19T13:17:07;16.98;;;13.80;;
33421;SDS011;19763;55.798;37.782;2023-11-19T13:19:33;19.08;;;14.23;;
33421;SDS011;19763;55.798;37.782;2023-11-19T13:22:00;19.70;;;14.85;;
33421;SDS011;19763;55.798;37.782;2023-11-19T13:24:25;19.65;;;13.70;;
33421;SDS011;19763;55.798;37.782;2023-11-19T13:26:51;20.67;;;14.35;;
33421;SDS011;19763;55.798;37.782;2023-11-19T13:29:17;21.13;;;14.10;;
33421;SDS011;19763;55.798;37.782;2023-11-19T13:31:42;21.73;;;14.45;;
33421;SDS011;19763;55.798;37.782;2023-11-19T13:34:08;24.08;;;14.82;;
33421;SDS011;19763;55.798;37.782;2023-11-19T13:36:34;26.75;;;15.25;;
33421;SDS011;19763;55.798;37.782;2023-11-19T13:39:00;18.63;;;14.48;;
33421;SDS011;19763;55.798;37.782;2023-11-19T13:41:26;20.70;;;14.65;;
33421;SDS011;19763;55.798;37.782;2023-11-19T13:43:52;23.58;;;16.00;;
33421;SDS011;19763;55.798;37.782;2023-11-19T13:46:18;22.10;;;15.45;;
33421;SDS011;19763;55.798;37.782;2023-11-19T13:48:45;20.40;;;14.65;;
33421;SDS011;19763;55.798;37.782;2023-11-19T13:51:10;19.45;;;15.25;;
33421;SDS011;19763;55.798;37.782;2023-11-19T13:53:36;20.02;;;15.90;;
33421;SDS011;19763;55.798;37.782;2023-11-19T13:56:02;20.65;;;14.70;;
33421;SDS011;19763;55.798;37.782;2023-11-19T13:58:28;21.52;;;15.40;;
33421;SDS011;19763;55.798;37.782;2023-11-19T14:00:54;24.63;;;15.02;;
33421;SDS011;19763;55.798;37.782;2023-11-19T14:03:20;23.60;;;14.60;;
33421;SDS011;19763;55.798;37.782;2023-11-19T14:05:45;27.23;;;15.07;;
33421;SDS011;19763;55.798;37.782;2023-11-19T14:08:11;17.77;;;13.95;;
33421;SDS011;19763;55.798;37.782;2023-11-19T14:10:38;22.20;;;16.95;;
33421;SDS011;19763;55.798;37.782;2023-11-19T14:13:07;20.58;;;15.25;;
33421;SDS011;19763;55.798;37.782;2023-11-19T14:15:33;23.48;;;14.02;;
33421;SDS011;19763;55.798;37.782;2023-11-19T14:17:59;29.73;;;15.60;;
33421;SDS011;19763;55.798;37.782;2023-11-19T14:20:25;19.85;;;14.70;;
33421;SDS011;19763;55.798;37.782;2023-11-19T14:22:51;24.30;;;16.55;;
33421;SDS011;19763;55.798;37.782;2023-11-19T14:25:18;21.20;;;14.63;;
33421;SDS011;19763;55.798;37.782;2023-11-19T14:27:44;21.52;;;15.00;;
33421;SDS011;19763;55.798;37.782;2023-11-19T14:30:11;21.40;;;15.07;;
33421;SDS011;19763;55.798;37.782;2023-11-19T14:32:39;20.13;;;14.75;;